Time;durP1;ratioP1;P1;durP2;ratioP2;P2;SDS_P1;SDS_P2;PMS_P1;PMS_P2;Temp;Humidity;BMP_temperature;BMP_pressure;BME280_temperature;BME280_humidity;BME280_pressure;Samples;Min_cycle;Max_cycle;Signal;HPM_P1;HPM_P2
2023/06/02 00:00:26;;;;;;;12.07;8.45;;;;;;;21.42;71.94;100521.03;5075759;28;20040;-75
2023/06/02 00:02:55;;;;;;;12.88;8.57;;;;;;;21.37;72.73;100523.25;5093406;28;20043;-74
2023/06/02 00:05:24;;;;;;;10.10;7.93;;;;;;;21.34;72.50;100524.78;5092415;28;20424;-74
2023/06/02 00:07:52;;;;;;;10.00;7.88;;;;;;;21.31;72.70;100515.16;5093327;28;20055;-74
2023/06/02 00:10:20;;;;;;;10.55;7.93;;;;;;;21.26;73.45;100525.75;5092212;28;20052;-74
2023/06/02 00:12:48;;;;;;;10.65;8.30;;;;;;;21.27;72.86;100525.41;5093024;28;20047;-74
2023/06/02 00:15:17;;;;;;;11.18;8.27;;;;;;;21.16;72.64;100525.06;5093334;28;20051;-74
2023/06/02 00:17:45;;;;;;;10.23;7.97;;;;;;;21.06;72.87;100531.13;5093274;28;20051;-74
2023/06/02 00:20:13;;;;;;;12.15;8.40;;;;;;;20.94;73.32;100527.25;5093069;28;20044;-74
2023/06/02 00:22:41;;;;;;;9.98;8.07;;;;;;;20.96;73.41;100526.09;5092628;28;20040;-74
2023/06/02 00:25:09;;;;;;;13.75;8.80;;;;;;;20.87;74.59;100521.47;5092000;28;20483;-74
2023/06/02 00:27:37;;;;;;;10.30;7.68;;;;;;;20.89;75.24;100532.25;5072716;28;20368;-74
2023/06/02 00:30:05;;;;;;;10.73;8.75;;;;;;;20.93;74.90;100531.19;5071713;28;20059;-74
2023/06/02 00:32:33;;;;;;;13.48;8.73;;;;;;;20.91;75.23;100525.16;5081622;28;20066;-74
2023/06/02 00:35:01;;;;;;;10.65;8.23;;;;;;;20.94;75.54;100527.25;5091338;28;20040;-75
2023/06/02 00:37:29;;;;;;;11.45;8.65;;;;;;;20.82;75.41;100521.69;5092711;28;20093;-74
2023/06/02 00:39:57;;;;;;;12.43;7.95;;;;;;;20.67;75.31;100526.81;5092892;28;20398;-74
2023/06/02 00:42:25;;;;;;;9.82;7.97;;;;;;;20.88;74.68;100520.31;5092354;28;20066;-74
2023/06/02 00:44:53;;;;;;;12.68;8.00;;;;;;;20.83;74.38;100533.63;5092842;28;20036;-74
2023/06/02 00:47:21;;;;;;;13.30;8.93;;;;;;;20.75;75.60;100521.47;5091595;28;20047;-75
2023/06/02 00:49:49;;;;;;;12.07;8.13;;;;;;;20.74;74.71;100520.69;5092651;28;20040;-74
2023/06/02 00:52:18;;;;;;;11.95;8.20;;;;;;;20.70;76.50;100516.97;5092357;28;20055;-74
2023/06/02 00:54:46;;;;;;;12.00;8.50;;;;;;;20.73;75.63;100516.25;5090850;28;20040;-74
2023/06/02 00:57:15;;;;;;;9.77;7.10;;;;;;;20.76;74.47;100517.53;5091196;28;20044;-75
2023/06/02 00:59:46;;;;;;;10.35;7.78;;;;;;;20.73;74.57;100504.34;5092294;28;20055;-75
2023/06/02 01:02:16;;;;;;;9.82;7.80;;;;;;;20.76;74.34;100501.66;5091156;28;20482;-75
2023/06/02 01:04:46;;;;;;;14.80;8.10;;;;;;;20.75;74.91;100505.63;5091266;28;20512;-75
2023/06/02 01:07:22;;;;;;;10.35;7.93;;;;;;;20.68;75.59;100500.63;5092418;28;20051;-75
2023/06/02 01:09:55;;;;;;;11.80;8.35;;;;;;;20.59;76.49;100494.41;5091160;28;20051;-75
2023/06/02 01:12:24;;;;;;;11.75;8.02;;;;;;;20.52;76.29;100494.19;5091951;28;20051;-75
2023/06/02 01:14:52;;;;;;;10.73;7.97;;;;;;;20.47;77.11;100488.88;5092178;28;20043;-75
2023/06/02 01:17:20;;;;;;;14.60;8.45;;;;;;;20.43;76.37;100487.97;5092149;28;20509;-75
2023/06/02 01:19:49;;;;;;;12.13;8.23;;;;;;;20.30;77.77;100495.50;5091963;28;20059;-75
2023/06/02 01:22:23;;;;;;;11.98;8.55;;;;;;;20.23;77.18;100496.88;5090418;28;20036;-75
2023/06/02 01:24:53;;;;;;;11.63;7.53;;;;;;;20.22;77.46;100494.44;5091169;28;20386;-75
2023/06/02 01:27:21;;;;;;;10.77;8.15;;;;;;;20.29;78.46;100489.13;5091788;28;20032;-75
2023/06/02 01:29:51;;;;;;;9.38;7.82;;;;;;;20.22;77.89;100500.00;5092022;28;20052;-75
2023/06/02 01:32:28;;;;;;;9.35;7.43;;;;;;;20.18;78.44;100499.09;5091706;28;20048;-75
2023/06/02 01:35:05;;;;;;;13.68;8.20;;;;;;;20.21;77.17;100499.22;5091951;28;20044;-75
2023/06/02 01:37:35;;;;;;;13.60;7.65;;;;;;;20.21;77.47;100492.84;5091926;28;20067;-75
2023/06/02 01:40:05;;;;;;;11.05;7.65;;;;;;;20.19;76.64;100497.94;5074249;28;20052;-75
2023/06/02 01:42:34;;;;;;;13.65;8.23;;;;;;;20.16;76.74;100495.84;5091657;28;20044;-75
2023/06/02 01:45:04;;;;;;;10.52;7.55;;;;;;;20.10;78.00;100493.28;5074228;28;20051;-75
2023/06/02 01:47:32;;;;;;;11.45;8.02;;;;;;;20.07;77.44;100488.44;5090801;28;20036;-75
2023/06/02 01:50:00;;;;;;;13.23;7.90;;;;;;;20.11;77.71;100494.94;5090716;28;20048;-75
2023/06/02 01:52:28;;;;;;;13.68;8.88;;;;;;;20.10;77.39;100492.50;5091382;28;20501;-75
2023/06/02 01:54:56;;;;;;;11.43;8.27;;;;;;;20.04;78.47;100491.91;5090649;28;20055;-75
2023/06/02 01:57:24;;;;;;;10.07;7.78;;;;;;;19.99;78.58;100486.59;5090653;28;20040;-75
2023/06/02 01:59:52;;;;;;;13.05;8.38;;;;;;;20.00;78.64;100488.22;5089959;28;20032;-75
2023/06/02 02:02:20;;;;;;;11.95;7.78;;;;;;;19.98;77.14;100485.78;5091774;28;20379;-75
2023/06/02 02:04:49;;;;;;;12.30;7.88;;;;;;;19.96;77.91;100481.72;5091848;28;20475;-75
2023/06/02 02:07:19;;;;;;;10.80;7.82;;;;;;;20.00;78.02;100482.66;5095433;28;20501;-75
2023/06/02 02:09:47;;;;;;;11.63;7.50;;;;;;;20.04;77.71;100483.56;5095877;28;20047;-75
2023/06/02 02:12:15;;;;;;;10.55;7.13;;;;;;;20.13;77.10;100481.50;5095390;28;20036;-75
2023/06/02 02:14:43;;;;;;;11.93;7.57;;;;;;;20.15;76.86;100492.25;5095841;28;20040;-75
2023/06/02 02:17:11;;;;;;;9.73;7.60;;;;;;;20.18;76.27;100491.56;5095497;28;20040;-74
2023/06/02 02:19:39;;;;;;;12.07;8.02;;;;;;;20.14;76.38;100477.56;5095635;28;20051;-75
2023/06/02 02:22:07;;;;;;;10.32;7.70;;;;;;;20.12;77.10;100479.88;5095435;28;20051;-75
2023/06/02 02:24:36;;;;;;;10.85;8.27;;;;;;;20.17;75.76;100489.94;5095551;28;20048;-75
2023/06/02 02:27:07;;;;;;;13.30;8.02;;;;;;;20.08;76.69;100492.84;5095303;28;20134;-75
2023/06/02 02:29:36;;;;;;;10.80;8.45;;;;;;;20.06;76.69;100481.28;5095274;28;20068;-75
2023/06/02 02:32:05;;;;;;;12.50;9.00;;;;;;;20.05;77.20;100484.38;5093790;28;20051;-75
2023/06/02 02:34:33;;;;;;;11.25;7.93;;;;;;;20.08;77.34;100480.94;5095349;28;20036;-75
2023/06/02 02:37:03;;;;;;;9.32;7.53;;;;;;;20.12;76.89;100479.06;5077658;28;20047;-75
2023/06/02 02:39:35;;;;;;;11.35;7.65;;;;;;;20.05;77.18;100496.31;5093945;28;20063;-75
2023/06/02 02:42:03;;;;;;;8.90;7.57;;;;;;;20.01;77.71;100484.28;5077118;28;20199;-75
2023/06/02 02:44:32;;;;;;;11.75;8.10;;;;;;;19.98;77.32;100487.72;5093943;28;20059;-75
2023/06/02 02:47:00;;;;;;;12.23;7.57;;;;;;;20.06;77.05;100491.56;5093903;28;20047;-75
2023/06/02 02:49:28;;;;;;;10.52;7.60;;;;;;;20.05;76.65;100495.50;5095131;28;20052;-75
2023/06/02 02:51:57;;;;;;;9.20;7.63;;;;;;;20.01;77.11;100485.06;5093406;28;20040;-75
2023/06/02 02:54:26;;;;;;;9.43;7.05;;;;;;;20.03;77.30;100481.94;5093773;28;20043;-75
2023/06/02 02:56:54;;;;;;;11.00;7.95;;;;;;;20.11;77.45;100483.00;5089059;28;20056;-75
2023/06/02 02:59:22;;;;;;;9.55;7.60;;;;;;;20.10;77.69;100484.94;5087018;28;20052;-75
2023/06/02 03:01:50;;;;;;;11.43;8.20;;;;;;;20.24;77.05;100481.03;5090830;28;20047;-75
2023/06/02 03:04:24;;;;;;;12.30;8.23;;;;;;;20.07;77.91;100487.63;5079901;28;20044;-75
2023/06/02 03:06:54;;;;;;;11.93;8.73;;;;;;;20.17;76.42;100486.34;5076199;28;20048;-75
2023/06/02 03:09:25;;;;;;;10.80;7.50;;;;;;;20.08;77.36;100489.28;5094725;28;20048;-75
2023/06/02 03:11:57;;;;;;;11.70;8.30;;;;;;;19.95;77.57;100483.66;5094302;28;20040;-75
2023/06/02 03:14:28;;;;;;;11.20;8.13;;;;;;;19.83;80.27;100483.66;5093422;28;20044;-75
2023/06/02 03:17:00;;;;;;;11.35;7.95;;;;;;;20.03;78.67;100489.50;5092844;28;20044;-75
2023/06/02 03:19:29;;;;;;;15.40;8.95;;;;;;;19.95;79.11;100480.09;5094523;28;20048;-75
2023/06/02 03:21:57;;;;;;;12.50;7.93;;;;;;;19.91;79.98;100474.41;5089549;28;20398;-74
2023/06/02 03:24:26;;;;;;;12.80;8.43;;;;;;;19.79;79.67;100483.53;5089776;28;20037;-75
2023/06/02 03:26:57;;;;;;;13.13;8.00;;;;;;;19.70;80.21;100482.84;5072843;28;20510;-75
2023/06/02 03:29:25;;;;;;;11.85;8.07;;;;;;;19.71;79.92;100481.69;5089550;28;20063;-75
2023/06/02 03:31:54;;;;;;;13.88;8.18;;;;;;;19.68;80.06;100485.97;5077211;28;20050;-74
2023/06/02 03:34:26;;;;;;;12.35;8.18;;;;;;;19.80;80.00;100485.16;5093030;28;20067;-74
2023/06/02 03:36:54;;;;;;;10.48;8.02;;;;;;;19.93;79.60;100482.38;5094125;28;20056;-74
2023/06/02 03:39:22;;;;;;;11.90;8.63;;;;;;;19.91;79.54;100481.91;5092239;28;20036;-74
2023/06/02 03:41:50;;;;;;;13.05;8.07;;;;;;;19.88;79.46;100481.47;5093767;28;20044;-74
2023/06/02 03:44:18;;;;;;;10.35;8.25;;;;;;;19.78;79.59;100481.91;5094108;28;20043;-74
2023/06/02 03:46:46;;;;;;;10.35;8.13;;;;;;;19.77;79.88;100476.69;5093804;28;20055;-74
2023/06/02 03:49:14;;;;;;;10.90;8.18;;;;;;;19.73;79.49;100482.13;5094073;28;20055;-74
2023/06/02 03:51:43;;;;;;;9.23;7.75;;;;;;;19.71;78.99;100484.47;5090371;28;20418;-74
2023/06/02 03:54:11;;;;;;;11.45;8.13;;;;;;;19.70;79.00;100480.84;5091991;28;20036;-74
2023/06/02 03:56:39;;;;;;;10.18;7.75;;;;;;;19.79;79.21;100477.97;5093645;28;20036;-74
2023/06/02 03:59:07;;;;;;;12.57;8.45;;;;;;;19.89;79.72;100493.38;5092511;28;20032;-74
2023/06/02 04:01:35;;;;;;;12.40;8.60;;;;;;;19.91;78.57;100490.25;5092295;28;20059;-74
2023/06/02 04:04:04;;;;;;;14.43;8.68;;;;;;;19.79;79.25;100494.63;5072224;28;20040;-74
2023/06/02 04:06:33;;;;;;;9.73;7.47;;;;;;;19.92;78.99;100498.25;5073375;28;20041;-74
2023/06/02 04:09:01;;;;;;;11.18;8.20;;;;;;;19.94;79.37;100495.13;5072168;28;20399;-74
2023/06/02 04:11:30;;;;;;;12.82;9.02;;;;;;;19.95;79.29;100491.19;5088885;28;20059;-75
2023/06/02 04:13:57;;;;;;;11.10;8.32;;;;;;;19.95;80.53;100491.97;5092649;28;20048;-75
2023/06/02 04:16:26;;;;;;;12.45;8.45;;;;;;;19.98;79.98;100496.06;5092235;28;20048;-75
2023/06/02 04:18:54;;;;;;;12.48;9.13;;;;;;;19.74;80.30;100486.53;5092966;28;20048;-75
2023/06/02 04:21:22;;;;;;;10.63;8.68;;;;;;;19.74;80.75;100500.41;5092054;28;20048;-75
2023/06/02 04:23:50;;;;;;;11.05;8.68;;;;;;;19.94;81.05;100501.47;5091863;28;20484;-75
2023/06/02 04:26:18;;;;;;;13.13;8.07;;;;;;;19.94;80.13;100501.47;5091926;28;20040;-75
2023/06/02 04:28:46;;;;;;;11.00;8.50;;;;;;;20.04;79.39;100505.78;5092525;28;20059;-75
2023/06/02 04:31:26;;;;;;;12.48;9.27;;;;;;;20.23;78.92;100507.19;5091333;28;20040;-75
2023/06/02 04:33:57;;;;;;;9.90;8.90;;;;;;;20.36;78.42;100497.69;5089689;28;20052;-75
2023/06/02 04:36:25;;;;;;;13.57;8.82;;;;;;;20.36;77.99;100499.66;5082034;28;20668;-75
2023/06/02 04:38:53;;;;;;;11.48;8.63;;;;;;;20.47;77.63;100500.78;5081941;28;20047;-75
2023/06/02 04:41:22;;;;;;;11.95;8.10;;;;;;;20.56;77.05;100502.66;5098128;28;20036;-75
2023/06/02 04:43:51;;;;;;;12.48;8.00;;;;;;;20.56;76.86;100497.09;5091655;28;20043;-75
2023/06/02 04:46:19;;;;;;;12.27;7.53;;;;;;;20.65;76.02;100500.53;5091392;28;20050;-74
2023/06/02 04:48:48;;;;;;;13.10;8.05;;;;;;;20.88;75.27;100506.41;5091541;28;20054;-74
2023/06/02 04:51:16;;;;;;;12.35;7.22;;;;;;;21.39;73.96;100510.59;5092626;28;20478;-84
2023/06/02 04:53:45;;;;;;;9.52;7.07;;;;;;;21.73;71.76;100497.22;5092680;28;20052;-83
2023/06/02 04:56:13;;;;;;;10.82;7.55;;;;;;;22.06;70.00;100497.19;5091080;28;20047;-83
2023/06/02 04:58:42;;;;;;;9.45;6.63;;;;;;;22.27;69.18;100497.72;5088382;28;20051;-83
2023/06/02 05:01:10;;;;;;;9.82;6.78;;;;;;;22.36;68.56;100505.06;5087722;28;20047;-84
2023/06/02 05:03:40;;;;;;;8.30;6.32;;;;;;;22.53;67.56;100504.69;5092812;28;20387;-84
2023/06/02 05:06:08;;;;;;;11.07;7.47;;;;;;;22.39;68.83;100510.72;5082760;28;20044;-83
2023/06/02 05:08:37;;;;;;;9.50;7.63;;;;;;;22.37;68.80;100495.53;5072523;28;20040;-84
2023/06/02 05:11:06;;;;;;;11.00;7.65;;;;;;;22.48;69.14;100502.16;5077477;28;20043;-83
2023/06/02 05:13:34;;;;;;;11.95;8.07;;;;;;;22.50;69.90;100504.56;5091105;28;20051;-83
2023/06/02 05:16:02;;;;;;;12.57;7.60;;;;;;;22.49;70.17;100503.75;5089908;28;20048;-83
2023/06/02 05:18:31;;;;;;;11.63;7.90;;;;;;;22.70;69.50;100505.44;5073053;28;20394;-83
2023/06/02 05:21:00;;;;;;;10.48;8.00;;;;;;;22.59;69.84;100502.44;5089799;28;20043;-83
2023/06/02 05:23:29;;;;;;;8.93;7.13;;;;;;;22.70;69.00;100508.25;5073920;28;20036;-83
2023/06/02 05:25:57;;;;;;;15.35;7.97;;;;;;;22.80;68.05;100490.13;5091260;28;20584;-83
2023/06/02 05:28:25;;;;;;;11.38;7.13;;;;;;;22.99;67.69;100492.09;5090919;28;20153;-83
2023/06/02 05:30:53;;;;;;;10.32;6.93;;;;;;;22.98;67.56;100486.88;5091964;28;20036;-84
2023/06/02 05:33:23;;;;;;;9.90;7.10;;;;;;;23.17;67.00;100500.03;5074173;28;20505;-84
2023/06/02 05:35:51;;;;;;;9.52;6.65;;;;;;;23.26;66.71;100503.38;5090604;28;20043;-84
2023/06/02 05:38:20;;;;;;;9.38;6.75;;;;;;;23.35;66.13;100503.19;5089803;28;20048;-84
2023/06/02 05:40:48;;;;;;;9.23;7.10;;;;;;;23.10;66.67;100492.31;5088243;28;20040;-84
2023/06/02 05:43:16;;;;;;;9.85;6.72;;;;;;;23.33;66.40;100497.16;5073779;28;20513;-84
2023/06/02 05:45:44;;;;;;;7.95;6.82;;;;;;;23.39;65.98;100492.91;5108049;28;20403;-84
2023/06/02 05:48:12;;;;;;;8.70;6.20;;;;;;;23.52;65.66;100507.50;5090972;28;20040;-84
2023/06/02 05:50:42;;;;;;;10.43;6.53;;;;;;;23.50;64.93;100501.47;5087564;28;20037;-84
2023/06/02 05:53:11;;;;;;;10.02;6.80;;;;;;;23.49;64.77;100502.66;5054304;28;20059;-84
2023/06/02 05:55:39;;;;;;;8.95;6.25;;;;;;;23.37;64.44;100494.44;5070830;28;20056;-84
2023/06/02 05:58:08;;;;;;;8.95;6.13;;;;;;;23.54;64.03;100501.53;5070810;28;20399;-84
2023/06/02 06:00:37;;;;;;;7.28;5.65;;;;;;;23.55;63.35;100489.97;5087420;28;20056;-84
2023/06/02 06:03:06;;;;;;;8.43;6.18;;;;;;;23.75;62.41;100506.69;5087323;28;20045;-84
2023/06/02 06:05:38;;;;;;;7.93;5.75;;;;;;;23.78;62.23;100500.34;5070688;28;20566;-84
2023/06/02 06:08:06;;;;;;;10.68;7.05;;;;;;;23.82;61.79;100497.63;5092470;28;20043;-84
2023/06/02 06:10:34;;;;;;;7.57;5.72;;;;;;;23.82;61.54;100500.41;5071564;28;20037;-84
2023/06/02 06:13:02;;;;;;;8.57;6.32;;;;;;;23.92;61.07;100501.78;5086264;28;20040;-84
2023/06/02 06:15:30;;;;;;;8.05;5.85;;;;;;;23.99;60.32;100502.69;5071571;28;20040;-85
2023/06/02 06:17:58;;;;;;;10.35;6.10;;;;;;;24.13;60.51;100506.94;5069558;28;20043;-84
2023/06/02 06:20:26;;;;;;;8.18;5.85;;;;;;;24.14;60.92;100508.53;5071425;28;20056;-84
2023/06/02 06:22:55;;;;;;;7.15;6.03;;;;;;;24.24;60.35;100504.31;5087187;28;20051;-84
2023/06/02 06:25:25;;;;;;;10.07;5.78;;;;;;;24.34;59.72;100505.66;5086965;28;20049;-84
2023/06/02 06:27:54;;;;;;;6.68;5.97;;;;;;;24.47;59.97;100507.03;5053495;28;20052;-84
2023/06/02 06:30:23;;;;;;;11.48;6.70;;;;;;;24.42;59.67;100507.38;5072111;28;20395;-84
2023/06/02 06:32:56;;;;;;;8.13;6.18;;;;;;;24.53;59.29;100505.53;5069990;28;20055;-84
2023/06/02 06:35:24;;;;;;;9.02;6.72;;;;;;;24.70;58.96;100506.16;5071352;28;20056;-85
2023/06/02 06:37:56;;;;;;;9.20;6.30;;;;;;;24.73;59.23;100513.78;5071406;28;20041;-85
2023/06/02 06:40:24;;;;;;;8.68;5.93;;;;;;;24.83;58.93;100510.34;5071613;28;20060;-85
2023/06/02 06:42:52;;;;;;;9.77;6.22;;;;;;;24.86;56.51;100517.19;5071310;28;20048;-85
2023/06/02 06:45:26;;;;;;;9.32;6.50;;;;;;;24.84;57.14;100508.38;5070051;28;20055;-85
2023/06/02 06:47:54;;;;;;;7.22;6.35;;;;;;;25.03;57.26;100523.38;5069944;28;20633;-86
2023/06/02 06:50:22;;;;;;;8.35;6.00;;;;;;;25.09;56.46;100508.66;5069954;28;20380;-85
2023/06/02 06:52:50;;;;;;;6.85;5.93;;;;;;;25.16;56.63;100526.75;5072106;28;20368;-85
2023/06/02 06:55:18;;;;;;;10.40;7.03;;;;;;;24.99;56.06;100511.34;5074647;28;20048;-85
2023/06/02 06:57:46;;;;;;;6.53;5.75;;;;;;;25.06;56.21;100511.41;5074552;28;20056;-85
2023/06/02 07:00:15;;;;;;;7.07;5.38;;;;;;;25.11;56.20;100518.69;5074605;28;20406;-85
2023/06/02 07:02:44;;;;;;;7.13;5.55;;;;;;;25.16;55.01;100513.53;5074600;28;20044;-85
2023/06/02 07:05:12;;;;;;;7.70;5.50;;;;;;;25.19;54.50;100521.19;5074389;28;20044;-86
2023/06/02 07:07:40;;;;;;;7.32;5.32;;;;;;;25.17;55.11;100509.56;5090156;28;20402;-85
2023/06/02 07:10:08;;;;;;;7.72;5.35;;;;;;;25.34;54.60;100516.56;5084065;28;20047;-86
2023/06/02 07:12:37;;;;;;;7.95;5.05;;;;;;;25.39;53.74;100512.59;5093869;28;20052;-86
2023/06/02 07:15:07;;;;;;;6.55;4.80;;;;;;;25.48;53.67;100510.28;5093640;28;20047;-86
2023/06/02 07:17:36;;;;;;;8.07;4.72;;;;;;;25.61;53.38;100524.06;5094179;28;20051;-86
2023/06/02 07:20:05;;;;;;;8.05;5.65;;;;;;;25.58;53.44;100514.44;5093892;28;20375;-86
2023/06/02 07:22:32;;;;;;;8.63;5.45;;;;;;;25.64;52.90;100526.06;5092509;28;20055;-84
2023/06/02 07:25:02;;;;;;;7.25;5.03;;;;;;;25.58;52.45;100513.59;5093884;28;20047;-84
2023/06/02 07:27:31;;;;;;;6.43;5.10;;;;;;;25.86;53.63;100524.25;5088767;28;20052;-86
2023/06/02 07:30:00;;;;;;;7.50;5.43;;;;;;;25.87;52.08;100520.28;5084219;28;20047;-86
2023/06/02 07:32:28;;;;;;;6.97;5.28;;;;;;;25.99;52.54;100516.38;5088390;28;20044;-85
2023/06/02 07:34:56;;;;;;;9.38;5.82;;;;;;;25.82;52.28;100512.25;5091596;28;20051;-85
2023/06/02 07:37:24;;;;;;;9.35;5.43;;;;;;;26.00;52.23;100517.19;5092221;28;20048;-85
2023/06/02 07:39:52;;;;;;;8.80;5.68;;;;;;;26.02;51.62;100515.63;5092840;28;20051;-85
2023/06/02 07:42:21;;;;;;;6.97;5.03;;;;;;;26.01;51.48;100516.78;5093095;28;20040;-85
2023/06/02 07:44:49;;;;;;;6.93;5.13;;;;;;;26.01;50.92;100519.59;5093071;28;20479;-85
2023/06/02 07:47:17;;;;;;;5.97;4.95;;;;;;;26.10;51.82;100521.28;5089653;28;20048;-84
2023/06/02 07:49:45;;;;;;;8.07;5.28;;;;;;;26.07;51.36;100511.63;5077048;28;20047;-85
2023/06/02 07:52:13;;;;;;;5.68;4.45;;;;;;;26.21;51.81;100516.53;5092856;28;20032;-82
2023/06/02 07:54:42;;;;;;;4.82;4.30;;;;;;;26.30;51.05;100516.25;5093368;28;20048;-83
2023/06/02 07:57:10;;;;;;;7.22;5.00;;;;;;;26.15;50.32;100509.69;5093546;28;20478;-83
2023/06/02 07:59:38;;;;;;;6.10;4.78;;;;;;;26.25;51.13;100517.38;5093351;28;20048;-82
2023/06/02 08:02:06;;;;;;;11.90;5.88;;;;;;;26.31;49.47;100503.81;5083627;28;20040;-84
2023/06/02 08:04:35;;;;;;;7.82;5.57;;;;;;;26.47;50.57;100516.72;5091406;28;20044;-84
2023/06/02 08:07:04;;;;;;;11.07;5.05;;;;;;;26.53;49.26;100504.75;5091407;28;20051;-84
2023/06/02 08:09:32;;;;;;;6.95;5.30;;;;;;;26.58;49.35;100511.97;5090781;28;20039;-84
2023/06/02 08:12:00;;;;;;;7.22;5.15;;;;;;;26.54;48.47;100505.56;5088816;28;20040;-84
2023/06/02 08:14:30;;;;;;;7.25;5.07;;;;;;;26.61;48.45;100510.38;5101405;28;20049;-83
2023/06/02 08:16:58;;;;;;;6.85;5.07;;;;;;;26.51;48.05;100507.16;5079966;28;20561;-84
2023/06/02 08:19:26;;;;;;;6.13;5.50;;;;;;;26.58;47.90;100503.56;5093114;28;20056;-85
2023/06/02 08:21:54;;;;;;;8.85;5.53;;;;;;;26.46;47.48;100513.13;5085958;28;20052;-85
2023/06/02 08:24:26;;;;;;;6.53;4.97;;;;;;;26.53;48.44;100499.13;5088734;28;20483;-84
2023/06/02 08:26:55;;;;;;;8.38;5.15;;;;;;;26.72;48.54;100500.03;5085603;28;20052;-85
2023/06/02 08:29:23;;;;;;;6.50;4.65;;;;;;;26.81;48.37;100497.66;5085531;28;20048;-85
2023/06/02 08:31:51;;;;;;;6.72;5.00;;;;;;;26.98;47.08;100500.97;5085132;28;20045;-84
2023/06/02 08:34:20;;;;;;;9.27;5.40;;;;;;;26.90;47.47;100491.69;5092705;28;20043;-85
2023/06/02 08:36:57;;;;;;;6.75;4.80;;;;;;;27.04;46.90;100490.97;5088623;28;20044;-85
2023/06/02 08:39:26;;;;;;;7.38;5.22;;;;;;;27.11;46.93;100498.59;5089937;28;20040;-85
2023/06/02 08:41:55;;;;;;;7.07;5.30;;;;;;;27.09;47.23;100496.19;5090268;28;20040;-86
2023/06/02 08:44:29;;;;;;;6.15;4.93;;;;;;;27.08;47.20;100483.34;5088994;28;20071;-85
2023/06/02 08:47:02;;;;;;;7.50;5.60;;;;;;;27.10;47.24;100475.34;5085550;28;20056;-85
2023/06/02 08:49:34;;;;;;;7.18;5.70;;;;;;;27.26;48.14;100485.41;5091215;28;20051;-85
2023/06/02 08:52:12;;;;;;;7.63;5.07;;;;;;;27.41;46.93;100488.25;5092427;28;20784;-85
2023/06/02 08:54:43;;;;;;;6.97;5.03;;;;;;;27.45;46.08;100481.41;5089618;28;20044;-85
2023/06/02 08:57:16;;;;;;;8.30;5.38;;;;;;;27.44;45.82;100482.63;5093797;28;20040;-84
2023/06/02 08:59:49;;;;;;;6.78;4.65;;;;;;;27.44;45.84;100487.44;5091467;28;20044;-84
2023/06/02 09:02:18;;;;;;;6.07;5.00;;;;;;;27.47;45.57;100486.66;5091107;28;20044;-84
2023/06/02 09:04:46;;;;;;;8.30;5.05;;;;;;;27.50;44.44;100488.66;5091771;28;20041;-84
2023/06/02 09:07:15;;;;;;;7.38;6.20;;;;;;;27.69;45.00;100492.31;5091658;28;20363;-85
2023/06/02 09:09:45;;;;;;;9.30;6.32;;;;;;;27.74;45.47;100501.16;5091761;28;20044;-85
2023/06/02 09:12:14;;;;;;;6.80;5.22;;;;;;;27.16;44.49;100477.75;5091370;28;20044;-85
2023/06/02 09:14:42;;;;;;;8.20;5.20;;;;;;;27.61;46.06;100486.69;5090822;28;20486;-85
2023/06/02 09:17:25;;;;;;;7.72;5.40;;;;;;;27.89;45.66;100492.72;5091542;28;20032;-84
2023/06/02 09:19:58;;;;;;;6.75;5.05;;;;;;;28.06;44.63;100499.53;5092025;28;20066;-85
2023/06/02 09:22:27;;;;;;;8.68;6.18;;;;;;;28.14;44.68;100495.50;5092125;28;20382;-85
2023/06/02 09:24:55;;;;;;;6.85;5.30;;;;;;;28.09;44.56;100487.47;5091704;28;20044;-85
2023/06/02 09:27:25;;;;;;;8.88;5.75;;;;;;;28.32;44.03;100499.50;5091257;28;20510;-77
2023/06/02 09:30:03;;;;;;;8.77;5.90;;;;;;;28.70;43.08;100500.59;5089803;28;20048;-77
2023/06/02 09:32:36;;;;;;;9.77;5.55;;;;;;;29.00;43.42;100500.53;5090400;28;20044;-77
2023/06/02 09:35:08;;;;;;;8.10;6.40;;;;;;;28.89;41.98;100495.75;5107061;28;20037;-77
2023/06/02 09:37:57;;;;;;;10.75;6.43;;;;;;;29.02;43.26;100489.66;5091689;28;20052;-77
2023/06/02 09:40:29;;;;;;;12.18;6.65;;;;;;;29.03;42.57;100491.25;5106605;28;20040;-76
2023/06/02 09:42:57;;;;;;;6.97;5.85;;;;;;;29.29;42.41;100492.72;5090718;28;20051;-76
2023/06/02 09:45:29;;;;;;;7.30;6.00;;;;;;;29.31;42.18;100495.91;5090705;28;20051;-77
2023/06/02 09:47:58;;;;;;;8.82;5.95;;;;;;;29.53;42.37;100495.81;5107088;28;20047;-76
2023/06/02 09:50:37;;;;;;;10.27;6.25;;;;;;;29.66;41.23;100498.13;5091538;28;20048;-78
2023/06/02 09:53:11;;;;;;;10.80;6.22;;;;;;;29.59;42.88;100498.97;5089328;28;20508;-76
2023/06/02 09:55:40;;;;;;;9.05;7.10;;;;;;;29.46;40.82;100507.09;5093899;28;20047;-77
2023/06/02 09:58:08;;;;;;;13.50;7.82;;;;;;;29.80;41.77;100508.50;5070530;28;20052;-77
2023/06/02 10:00:36;;;;;;;9.60;6.55;;;;;;;29.86;40.73;100495.56;5070843;28;20040;-77
2023/06/02 10:03:06;;;;;;;7.28;5.90;;;;;;;29.94;40.74;100497.09;5071010;28;20048;-77
2023/06/02 10:05:35;;;;;;;9.63;7.53;;;;;;;30.31;39.61;100489.09;5084278;28;20493;-77
2023/06/02 10:08:03;;;;;;;9.98;6.88;;;;;;;30.57;38.91;100479.13;5091408;28;20048;-78
2023/06/02 10:11:01;;;;;;;9.55;6.18;;;;;;;30.69;40.15;100483.44;5091226;28;20048;-78
2023/06/02 10:13:36;;;;;;;9.93;6.40;;;;;;;31.01;39.09;100472.94;5073288;28;20048;-78
2023/06/02 10:16:28;;;;;;;7.18;5.70;;;;;;;31.20;38.56;100474.31;5091197;28;20069;-77
2023/06/02 10:19:14;;;;;;;6.78;6.07;;;;;;;30.93;37.45;100475.06;5091360;28;20486;-77
2023/06/02 10:22:18;;;;;;;7.35;6.45;;;;;;;30.03;40.02;100472.03;5089968;28;20114;-78
2023/06/02 10:25:08;;;;;;;9.25;6.10;;;;;;;30.19;38.92;100473.50;5075513;28;20395;-78
2023/06/02 10:27:39;;;;;;;9.70;6.90;;;;;;;30.08;39.97;100473.59;5083441;28;20059;-77
2023/06/02 10:30:07;;;;;;;9.60;7.10;;;;;;;30.17;40.49;100478.78;5094131;28;20047;-77
2023/06/02 10:32:47;;;;;;;9.95;7.35;;;;;;;29.84;41.63;100478.22;5094205;28;20118;-77
2023/06/02 10:35:17;;;;;;;8.70;6.63;;;;;;;29.69;41.00;100469.91;5094802;28;20044;-77
2023/06/02 10:37:45;;;;;;;9.25;6.82;;;;;;;29.89;41.49;100480.59;5093637;28;20058;-77
2023/06/02 10:40:14;;;;;;;9.98;6.80;;;;;;;29.94;41.83;100474.53;5093999;28;20040;-77
2023/06/02 10:43:10;;;;;;;9.63;7.53;;;;;;;29.88;41.22;100479.81;5093917;28;20040;-77
2023/06/02 10:45:41;;;;;;;9.18;7.57;;;;;;;29.89;41.26;100477.78;5094717;28;20044;-77
2023/06/02 10:48:34;;;;;;;9.43;7.10;;;;;;;29.72;41.87;100471.09;5094696;28;20071;-77
2023/06/02 10:51:02;;;;;;;8.98;6.95;;;;;;;29.62;41.12;100469.97;5094925;28;20040;-77
2023/06/02 10:53:32;;;;;;;10.23;6.30;;;;;;;29.73;41.97;100470.69;5094056;28;20055;-77
2023/06/02 10:56:40;;;;;;;7.95;5.85;;;;;;;29.75;40.65;100468.25;5094378;28;20070;-77
2023/06/02 10:59:10;;;;;;;8.05;6.07;;;;;;;29.52;41.45;100459.56;5092242;28;20437;-77
2023/06/02 11:01:48;;;;;;;8.23;5.93;;;;;;;29.39;41.05;100462.88;5092661;28;20055;-76
2023/06/02 11:04:28;;;;;;;10.57;6.20;;;;;;;29.18;41.47;100458.19;5091194;28;20047;-76
2023/06/02 11:07:18;;;;;;;8.77;6.68;;;;;;;29.15;41.90;100465.44;5092848;28;20032;-76
2023/06/02 11:09:54;;;;;;;7.47;5.75;;;;;;;29.10;41.38;100472.31;5102282;28;20040;-76
2023/06/02 11:12:51;;;;;;;10.05;6.07;;;;;;;28.85;41.45;100469.59;5091868;28;20051;-77
2023/06/02 11:15:20;;;;;;;7.05;5.55;;;;;;;28.84;41.57;100468.00;5091772;28;20040;-76
2023/06/02 11:17:49;;;;;;;6.78;5.43;;;;;;;28.81;42.66;100463.16;5088888;28;20028;-76
2023/06/02 11:20:35;;;;;;;6.18;5.18;;;;;;;28.79;42.49;100457.16;5092390;28;20799;-76
2023/06/02 11:23:12;;;;;;;6.63;5.40;;;;;;;28.73;42.97;100451.13;5089422;28;20056;-76
2023/06/02 11:25:47;;;;;;;8.80;5.28;;;;;;;28.75;43.31;100459.19;5084751;28;20044;-76
2023/06/02 11:28:22;;;;;;;7.28;5.05;;;;;;;28.61;43.88;100454.41;5092063;28;20059;-76
2023/06/02 11:31:13;;;;;;;7.72;5.28;;;;;;;28.61;43.21;100443.97;5088798;28;20048;-76
2023/06/02 11:33:48;;;;;;;6.88;5.45;;;;;;;28.57;44.27;100443.16;5090858;28;20474;-76
2023/06/02 11:36:26;;;;;;;6.50;5.47;;;;;;;28.52;43.66;100440.75;5091988;28;20106;-76